sensor_id;sensor_type;location;lat;lon;timestamp;temperature;humidity
5459;DHT22;2752;49.992;8.422;2022-10-31T00:02:00;11.30;99.90
5459;DHT22;2752;49.992;8.422;2022-10-31T00:04:27;11.20;99.90
5459;DHT22;2752;49.992;8.422;2022-10-31T00:06:53;11.20;99.90
5459;DHT22;2752;49.992;8.422;2022-10-31T00:09:20;11.20;99.90
5459;DHT22;2752;49.992;8.422;2022-10-31T00:11:47;11.30;99.90
5459;DHT22;2752;49.992;8.422;2022-10-31T00:14:13;11.40;99.90
5459;DHT22;2752;49.992;8.422;2022-10-31T00:16:40;11.40;99.90
5459;DHT22;2752;49.992;8.422;2022-10-31T00:19:08;11.40;99.90
5459;DHT22;2752;49.992;8.422;2022-10-31T00:21:35;11.50;99.90
5459;DHT22;2752;49.992;8.422;2022-10-31T00:24:02;11.70;99.90
5459;DHT22;2752;49.992;8.422;2022-10-31T00:26:30;11.90;99.90
5459;DHT22;2752;49.992;8.422;2022-10-31T00:28:57;11.80;99.90
5459;DHT22;2752;49.992;8.422;2022-10-31T00:31:24;11.80;99.90
5459;DHT22;2752;49.992;8.422;2022-10-31T00:33:51;11.80;99.90
5459;DHT22;2752;49.992;8.422;2022-10-31T00:36:19;11.80;99.90
5459;DHT22;2752;49.992;8.422;2022-10-31T00:38:47;11.70;99.90
5459;DHT22;2752;49.992;8.422;2022-10-31T00:41:15;11.70;99.90
5459;DHT22;2752;49.992;8.422;2022-10-31T00:43:42;11.90;99.90
5459;DHT22;2752;49.992;8.422;2022-10-31T00:46:09;12.00;99.90
5459;DHT22;2752;49.992;8.422;2022-10-31T00:48:36;12.10;99.90
5459;DHT22;2752;49.992;8.422;2022-10-31T00:51:03;11.90;99.90
5459;DHT22;2752;49.992;8.422;2022-10-31T00:55:59;11.70;99.90
5459;DHT22;2752;49.992;8.422;2022-10-31T00:58:25;11.70;99.90
5459;DHT22;2752;49.992;8.422;2022-10-31T01:00:52;11.70;99.90
5459;DHT22;2752;49.992;8.422;2022-10-31T01:03:21;11.70;99.90
5459;DHT22;2752;49.992;8.422;2022-10-31T01:05:58;11.60;99.90
5459;DHT22;2752;49.992;8.422;2022-10-31T01:08:26;11.50;99.90
5459;DHT22;2752;49.992;8.422;2022-10-31T01:11:05;11.50;99.90
5459;DHT22;2752;49.992;8.422;2022-10-31T01:13:33;11.50;99.90
5459;DHT22;2752;49.992;8.422;2022-10-31T01:16:01;11.50;99.90
5459;DHT22;2752;49.992;8.422;2022-10-31T01:18:28;11.40;99.90
5459;DHT22;2752;49.992;8.422;2022-10-31T01:21:03;11.40;99.90
5459;DHT22;2752;49.992;8.422;2022-10-31T01:23:30;11.30;99.90
5459;DHT22;2752;49.992;8.422;2022-10-31T01:26:07;11.30;99.90
5459;DHT22;2752;49.992;8.422;2022-10-31T01:28:34;11.30;99.90
5459;DHT22;2752;49.992;8.422;2022-10-31T01:31:03;11.20;99.90
5459;DHT22;2752;49.992;8.422;2022-10-31T01:33:30;11.20;99.90
5459;DHT22;2752;49.992;8.422;2022-10-31T01:35:57;11.20;99.90
5459;DHT22;2752;49.992;8.422;2022-10-31T01:38:23;11.10;99.90
5459;DHT22;2752;49.992;8.422;2022-10-31T01:40:50;11.10;99.90
5459;DHT22;2752;49.992;8.422;2022-10-31T01:43:19;11.10;99.90
5459;DHT22;2752;49.992;8.422;2022-10-31T01:45:51;11.00;99.90
5459;DHT22;2752;49.992;8.422;2022-10-31T01:48:23;11.00;99.90
5459;DHT22;2752;49.992;8.422;2022-10-31T01:50:51;10.90;99.90
5459;DHT22;2752;49.992;8.422;2022-10-31T01:53:20;10.90;99.90
5459;DHT22;2752;49.992;8.422;2022-10-31T01:55:47;10.80;99.90
5459;DHT22;2752;49.992;8.422;2022-10-31T01:58:19;10.80;99.90
5459;DHT22;2752;49.992;8.422;2022-10-31T02:00:49;10.80;99.90
5459;DHT22;2752;49.992;8.422;2022-10-31T02:03:19;10.80;99.90
5459;DHT22;2752;49.992;8.422;2022-10-31T02:05:47;10.80;99.90
5459;DHT22;2752;49.992;8.422;2022-10-31T02:08:16;10.80;99.90
5459;DHT22;2752;49.992;8.422;2022-10-31T02:10:45;10.70;99.90
5459;DHT22;2752;49.992;8.422;2022-10-31T02:13:12;10.70;99.90
5459;DHT22;2752;49.992;8.422;2022-10-31T02:15:40;10.70;99.90
5459;DHT22;2752;49.992;8.422;2022-10-31T02:18:09;10.70;99.90
5459;DHT22;2752;49.992;8.422;2022-10-31T02:20:42;10.70;99.90
5459;DHT22;2752;49.992;8.422;2022-10-31T02:23:25;10.80;99.90
5459;DHT22;2752;49.992;8.422;2022-10-31T02:26:14;10.80;99.60
5459;DHT22;2752;49.992;8.422;2022-10-31T02:29:06;10.90;98.90
5459;DHT22;2752;49.992;8.422;2022-10-31T02:31:42;10.80;97.40
5459;DHT22;2752;49.992;8.422;2022-10-31T02:34:17;10.80;97.10
5459;DHT22;2752;49.992;8.422;2022-10-31T02:36:52;10.80;97.40
5459;DHT22;2752;49.992;8.422;2022-10-31T02:39:24;10.70;97.80
5459;DHT22;2752;49.992;8.422;2022-10-31T02:41:58;10.70;98.40
5459;DHT22;2752;49.992;8.422;2022-10-31T02:44:31;10.70;98.70
5459;DHT22;2752;49.992;8.422;2022-10-31T02:47:05;10.70;99.00
5459;DHT22;2752;49.992;8.422;2022-10-31T02:49:38;10.60;99.10
5459;DHT22;2752;49.992;8.422;2022-10-31T02:52:16;10.60;99.70
5459;DHT22;2752;49.992;8.422;2022-10-31T02:54:45;10.60;99.90
5459;DHT22;2752;49.992;8.422;2022-10-31T02:57:12;10.50;99.90
5459;DHT22;2752;49.992;8.422;2022-10-31T02:59:44;10.50;99.90
5459;DHT22;2752;49.992;8.422;2022-10-31T03:02:36;10.50;99.90
5459;DHT22;2752;49.992;8.422;2022-10-31T03:05:27;10.60;99.90
5459;DHT22;2752;49.992;8.422;2022-10-31T03:08:03;10.60;99.90
5459;DHT22;2752;49.992;8.422;2022-10-31T03:10:40;10.50;99.90
5459;DHT22;2752;49.992;8.422;2022-10-31T03:13:11;10.50;99.90
5459;DHT22;2752;49.992;8.422;2022-10-31T03:15:44;10.50;99.90
5459;DHT22;2752;49.992;8.422;2022-10-31T03:18:15;10.50;99.90
5459;DHT22;2752;49.992;8.422;2022-10-31T03:20:47;10.50;99.90
5459;DHT22;2752;49.992;8.422;2022-10-31T03:23:17;10.40;99.90
5459;DHT22;2752;49.992;8.422;2022-10-31T03:25:45;10.40;99.90
5459;DHT22;2752;49.992;8.422;2022-10-31T03:28:15;10.40;99.90
5459;DHT22;2752;49.992;8.422;2022-10-31T03:30:44;10.40;99.90
5459;DHT22;2752;49.992;8.422;2022-10-31T03:33:16;10.40;99.90
5459;DHT22;2752;49.992;8.422;2022-10-31T03:35:47;10.40;99.90
5459;DHT22;2752;49.992;8.422;2022-10-31T03:38:14;10.40;99.90
5459;DHT22;2752;49.992;8.422;2022-10-31T03:40:43;10.30;99.90
5459;DHT22;2752;49.992;8.422;2022-10-31T03:43:15;10.30;99.90
5459;DHT22;2752;49.992;8.422;2022-10-31T03:45:45;10.30;99.90
5459;DHT22;2752;49.992;8.422;2022-10-31T03:48:14;10.30;99.90
5459;DHT22;2752;49.992;8.422;2022-10-31T03:50:47;10.30;99.90
5459;DHT22;2752;49.992;8.422;2022-10-31T03:53:20;10.30;99.90
5459;DHT22;2752;49.992;8.422;2022-10-31T03:55:52;10.20;99.90
5459;DHT22;2752;49.992;8.422;2022-10-31T03:58:24;10.20;99.90
5459;DHT22;2752;49.992;8.422;2022-10-31T04:00:54;10.20;99.90
5459;DHT22;2752;49.992;8.422;2022-10-31T04:03:26;10.20;99.90
5459;DHT22;2752;49.992;8.422;2022-10-31T04:05:55;10.20;99.90
5459;DHT22;2752;49.992;8.422;2022-10-31T04:08:26;10.20;99.90
5459;DHT22;2752;49.992;8.422;2022-10-31T04:10:54;10.30;99.90
5459;DHT22;2752;49.992;8.422;2022-10-31T04:13:26;10.20;99.90
5459;DHT22;2752;49.992;8.422;2022-10-31T04:15:54;10.20;99.90
5459;DHT22;2752;49.992;8.422;2022-10-31T04:18:24;10.20;99.90
5459;DHT22;2752;49.992;8.422;2022-10-31T04:20:59;10.10;99.90
5459;DHT22;2752;49.992;8.422;2022-10-31T04:23:27;10.10;99.90
5459;DHT22;2752;49.992;8.422;2022-10-31T04:25:54;10.10;99.90
5459;DHT22;2752;49.992;8.422;2022-10-31T04:28:21;10.10;99.90
5459;DHT22;2752;49.992;8.422;2022-10-31T04:30:48;10.10;99.90
5459;DHT22;2752;49.992;8.422;2022-10-31T04:33:15;10.10;99.90
5459;DHT22;2752;49.992;8.422;2022-10-31T04:35:43;10.10;99.90
5459;DHT22;2752;49.992;8.422;2022-10-31T04:38:09;10.10;99.90
5459;DHT22;2752;49.992;8.422;2022-10-31T04:40:36;10.10;99.90
5459;DHT22;2752;49.992;8.422;2022-10-31T04:43:03;10.10;99.90
5459;DHT22;2752;49.992;8.422;2022-10-31T04:45:29;10.10;99.90
5459;DHT22;2752;49.992;8.422;2022-10-31T04:47:56;10.00;99.90
5459;DHT22;2752;49.992;8.422;2022-10-31T04:50:23;10.00;99.90
5459;DHT22;2752;49.992;8.422;2022-10-31T04:52:51;10.00;99.90
5459;DHT22;2752;49.992;8.422;2022-10-31T04:55:17;10.10;99.90
5459;DHT22;2752;49.992;8.422;2022-10-31T04:57:46;10.10;99.90
5459;DHT22;2752;49.992;8.422;2022-10-31T05:00:15;10.10;99.90
5459;DHT22;2752;49.992;8.422;2022-10-31T05:02:43;10.10;99.90
5459;DHT22;2752;49.992;8.422;2022-10-31T05:05:10;10.10;99.90
5459;DHT22;2752;49.992;8.422;2022-10-31T05:07:39;10.20;99.90
5459;DHT22;2752;49.992;8.422;2022-10-31T05:10:08;10.20;99.90
5459;DHT22;2752;49.992;8.422;2022-10-31T05:12:36;10.20;99.90
5459;DHT22;2752;49.992;8.422;2022-10-31T05:15:03;10.20;99.90
5459;DHT22;2752;49.992;8.422;2022-10-31T05:17:30;10.30;99.90
5459;DHT22;2752;49.992;8.422;2022-10-31T05:19:57;10.40;99.90
5459;DHT22;2752;49.992;8.422;2022-10-31T05:22:24;10.40;99.90
5459;DHT22;2752;49.992;8.422;2022-10-31T05:24:50;10.40;99.90
5459;DHT22;2752;49.992;8.422;2022-10-31T05:27:18;10.50;99.90
5459;DHT22;2752;49.992;8.422;2022-10-31T05:29:46;10.60;99.90
5459;DHT22;2752;49.992;8.422;2022-10-31T05:32:13;10.60;99.90
5459;DHT22;2752;49.992;8.422;2022-10-31T05:34:39;10.60;99.90
5459;DHT22;2752;49.992;8.422;2022-10-31T05:37:06;10.70;99.90
5459;DHT22;2752;49.992;8.422;2022-10-31T05:39:32;10.70;99.90
5459;DHT22;2752;49.992;8.422;2022-10-31T05:41:59;10.80;99.90
5459;DHT22;2752;49.992;8.422;2022-10-31T05:44:27;10.70;99.90
5459;DHT22;2752;49.992;8.422;2022-10-31T05:46:54;10.70;99.90
5459;DHT22;2752;49.992;8.422;2022-10-31T05:49:20;10.70;99.90
5459;DHT22;2752;49.992;8.422;2022-10-31T05:51:48;10.70;99.90
5459;DHT22;2752;49.992;8.422;2022-10-31T05:54:14;10.70;99.90
5459;DHT22;2752;49.992;8.422;2022-10-31T05:56:41;10.60;99.90
5459;DHT22;2752;49.992;8.422;2022-10-31T05:59:08;10.60;99.90
5459;DHT22;2752;49.992;8.422;2022-10-31T06:01:36;10.60;99.90
5459;DHT22;2752;49.992;8.422;2022-10-31T06:04:02;10.60;99.90
5459;DHT22;2752;49.992;8.422;2022-10-31T06:06:29;10.60;99.90
5459;DHT22;2752;49.992;8.422;2022-10-31T06:08:56;10.60;99.90
5459;DHT22;2752;49.992;8.422;2022-10-31T06:11:23;10.70;99.90
5459;DHT22;2752;49.992;8.422;2022-10-31T06:13:50;10.70;99.90
5459;DHT22;2752;49.992;8.422;2022-10-31T06:16:16;10.70;99.90
5459;DHT22;2752;49.992;8.422;2022-10-31T06:18:45;10.70;99.90
5459;DHT22;2752;49.992;8.422;2022-10-31T06:21:12;10.70;99.90
5459;DHT22;2752;49.992;8.422;2022-10-31T06:23:38;10.70;99.90
5459;DHT22;2752;49.992;8.422;2022-10-31T06:26:05;10.80;99.90
5459;DHT22;2752;49.992;8.422;2022-10-31T06:28:32;10.80;99.90
5459;DHT22;2752;49.992;8.422;2022-10-31T06:30:58;10.80;99.90
5459;DHT22;2752;49.992;8.422;2022-10-31T06:33:25;10.80;99.90
5459;DHT22;2752;49.992;8.422;2022-10-31T06:35:53;10.90;99.90
5459;DHT22;2752;49.992;8.422;2022-10-31T06:38:20;10.90;99.90
5459;DHT22;2752;49.992;8.422;2022-10-31T06:40:47;11.00;99.90
5459;DHT22;2752;49.992;8.422;2022-10-31T06:43:14;11.00;99.90
5459;DHT22;2752;49.992;8.422;2022-10-31T06:45:42;11.10;99.90
5459;DHT22;2752;49.992;8.422;2022-10-31T06:48:09;11.10;99.90
5459;DHT22;2752;49.992;8.422;2022-10-31T06:50:36;11.20;99.90
5459;DHT22;2752;49.992;8.422;2022-10-31T06:53:04;11.20;99.90
5459;DHT22;2752;49.992;8.422;2022-10-31T06:55:31;11.30;99.90
5459;DHT22;2752;49.992;8.422;2022-10-31T06:58:00;11.40;99.90
5459;DHT22;2752;49.992;8.422;2022-10-31T07:00:29;11.40;99.90
5459;DHT22;2752;49.992;8.422;2022-10-31T07:02:57;11.50;99.90
5459;DHT22;2752;49.992;8.422;2022-10-31T07:05:25;11.50;99.90
5459;DHT22;2752;49.992;8.422;2022-10-31T07:07:53;11.60;99.90
5459;DHT22;2752;49.992;8.422;2022-10-31T07:10:22;11.60;99.90
5459;DHT22;2752;49.992;8.422;2022-10-31T07:12:54;11.60;99.90
5459;DHT22;2752;49.992;8.422;2022-10-31T07:15:22;11.60;99.90
5459;DHT22;2752;49.992;8.422;2022-10-31T07:17:49;11.70;99.90
5459;DHT22;2752;49.992;8.422;2022-10-31T07:20:16;11.80;99.90
5459;DHT22;2752;49.992;8.422;2022-10-31T07:22:43;11.80;99.90
5459;DHT22;2752;49.992;8.422;2022-10-31T07:25:11;11.90;99.90
5459;DHT22;2752;49.992;8.422;2022-10-31T07:27:42;11.90;99.90
5459;DHT22;2752;49.992;8.422;2022-10-31T07:30:12;11.90;99.90
5459;DHT22;2752;49.992;8.422;2022-10-31T07:32:39;12.00;99.90
5459;DHT22;2752;49.992;8.422;2022-10-31T07:35:07;12.00;99.90
5459;DHT22;2752;49.992;8.422;2022-10-31T07:37:35;12.10;99.90
5459;DHT22;2752;49.992;8.422;2022-10-31T07:40:02;12.10;99.80
5459;DHT22;2752;49.992;8.422;2022-10-31T07:42:34;12.20;99.90
5459;DHT22;2752;49.992;8.422;2022-10-31T07:45:05;12.40;98.80
5459;DHT22;2752;49.992;8.422;2022-10-31T07:47:38;12.40;98.10
5459;DHT22;2752;49.992;8.422;2022-10-31T07:50:05;12.50;97.60
5459;DHT22;2752;49.992;8.422;2022-10-31T07:52:33;12.60;96.70
5459;DHT22;2752;49.992;8.422;2022-10-31T07:54:59;12.60;96.30
5459;DHT22;2752;49.992;8.422;2022-10-31T07:57:26;12.70;95.30
5459;DHT22;2752;49.992;8.422;2022-10-31T07:59:54;12.70;94.70
5459;DHT22;2752;49.992;8.422;2022-10-31T08:02:22;12.90;94.40
5459;DHT22;2752;49.992;8.422;2022-10-31T08:04:49;12.90;93.60
5459;DHT22;2752;49.992;8.422;2022-10-31T08:07:16;13.00;90.50
5459;DHT22;2752;49.992;8.422;2022-10-31T08:09:44;13.00;88.80
5459;DHT22;2752;49.992;8.422;2022-10-31T08:12:11;13.20;87.60
5459;DHT22;2752;49.992;8.422;2022-10-31T08:14:38;13.30;84.00
5459;DHT22;2752;49.992;8.422;2022-10-31T08:17:05;13.30;83.30
5459;DHT22;2752;49.992;8.422;2022-10-31T08:19:34;13.30;83.20
5459;DHT22;2752;49.992;8.422;2022-10-31T08:22:01;13.30;79.40
5459;DHT22;2752;49.992;8.422;2022-10-31T08:24:28;13.30;78.10
5459;DHT22;2752;49.992;8.422;2022-10-31T08:26:57;13.30;77.70
5459;DHT22;2752;49.992;8.422;2022-10-31T08:29:26;13.30;78.10
5459;DHT22;2752;49.992;8.422;2022-10-31T08:31:53;13.30;78.10
5459;DHT22;2752;49.992;8.422;2022-10-31T08:34:19;13.30;78.10
5459;DHT22;2752;49.992;8.422;2022-10-31T08:36:48;13.30;78.10
5459;DHT22;2752;49.992;8.422;2022-10-31T08:39:15;13.40;76.90
5459;DHT22;2752;49.992;8.422;2022-10-31T08:41:43;13.40;75.20
5459;DHT22;2752;49.992;8.422;2022-10-31T08:44:11;13.40;73.30
5459;DHT22;2752;49.992;8.422;2022-10-31T08:46:46;13.40;73.80
5459;DHT22;2752;49.992;8.422;2022-10-31T08:49:13;13.50;71.80
5459;DHT22;2752;49.992;8.422;2022-10-31T08:51:40;13.50;71.40
5459;DHT22;2752;49.992;8.422;2022-10-31T08:54:09;13.50;70.30
5459;DHT22;2752;49.992;8.422;2022-10-31T08:56:37;13.50;70.60
5459;DHT22;2752;49.992;8.422;2022-10-31T08:59:03;13.50;70.70
5459;DHT22;2752;49.992;8.422;2022-10-31T09:01:30;13.60;70.60
5459;DHT22;2752;49.992;8.422;2022-10-31T09:03:58;13.60;70.60
5459;DHT22;2752;49.992;8.422;2022-10-31T09:06:27;13.70;69.10
5459;DHT22;2752;49.992;8.422;2022-10-31T09:08:54;13.70;70.20
5459;DHT22;2752;49.992;8.422;2022-10-31T09:11:23;13.80;67.20
5459;DHT22;2752;49.992;8.422;2022-10-31T09:13:52;13.90;67.70
5459;DHT22;2752;49.992;8.422;2022-10-31T09:16:18;14.00;65.60
5459;DHT22;2752;49.992;8.422;2022-10-31T09:18:46;14.00;61.50
5459;DHT22;2752;49.992;8.422;2022-10-31T09:21:15;14.20;60.30
5459;DHT22;2752;49.992;8.422;2022-10-31T09:23:42;14.20;59.10
5459;DHT22;2752;49.992;8.422;2022-10-31T09:26:11;14.30;56.80
5459;DHT22;2752;49.992;8.422;2022-10-31T09:28:40;14.30;57.80
5459;DHT22;2752;49.992;8.422;2022-10-31T09:31:06;14.40;58.60
5459;DHT22;2752;49.992;8.422;2022-10-31T09:33:34;14.40;59.90
5459;DHT22;2752;49.992;8.422;2022-10-31T09:36:00;14.60;59.90
5459;DHT22;2752;49.992;8.422;2022-10-31T09:38:27;14.60;56.90
5459;DHT22;2752;49.992;8.422;2022-10-31T09:40:57;14.70;58.00
5459;DHT22;2752;49.992;8.422;2022-10-31T09:43:33;14.80;55.30
5459;DHT22;2752;49.992;8.422;2022-10-31T09:46:09;14.80;52.10
5459;DHT22;2752;49.992;8.422;2022-10-31T09:48:49;14.90;54.70
5459;DHT22;2752;49.992;8.422;2022-10-31T09:51:22;15.10;53.70
5459;DHT22;2752;49.992;8.422;2022-10-31T09:53:52;15.10;48.70
5459;DHT22;2752;49.992;8.422;2022-10-31T09:56:22;15.20;49.50
5459;DHT22;2752;49.992;8.422;2022-10-31T09:58:54;15.30;47.50
5459;DHT22;2752;49.992;8.422;2022-10-31T10:01:33;15.40;46.60
5459;DHT22;2752;49.992;8.422;2022-10-31T10:04:05;15.50;46.70
5459;DHT22;2752;49.992;8.422;2022-10-31T10:06:40;15.60;44.50
5459;DHT22;2752;49.992;8.422;2022-10-31T10:09:10;15.80;41.90
5459;DHT22;2752;49.992;8.422;2022-10-31T10:11:48;15.80;42.20
5459;DHT22;2752;49.992;8.422;2022-10-31T10:14:26;15.80;38.70
5459;DHT22;2752;49.992;8.422;2022-10-31T10:17:08;15.90;38.50
5459;DHT22;2752;49.992;8.422;2022-10-31T10:20:01;15.90;38.40
5459;DHT22;2752;49.992;8.422;2022-10-31T10:22:37;15.90;38.80
5459;DHT22;2752;49.992;8.422;2022-10-31T10:25:26;16.00;36.30
5459;DHT22;2752;49.992;8.422;2022-10-31T10:28:02;16.10;36.70
5459;DHT22;2752;49.992;8.422;2022-10-31T10:30:34;16.20;37.10
5459;DHT22;2752;49.992;8.422;2022-10-31T10:33:08;16.40;35.50
5459;DHT22;2752;49.992;8.422;2022-10-31T10:35:40;16.40;35.80
5459;DHT22;2752;49.992;8.422;2022-10-31T10:38:14;16.50;33.40
5459;DHT22;2752;49.992;8.422;2022-10-31T10:40:42;16.60;32.50
5459;DHT22;2752;49.992;8.422;2022-10-31T10:43:20;16.70;32.10
5459;DHT22;2752;49.992;8.422;2022-10-31T10:45:57;16.80;32.60
5459;DHT22;2752;49.992;8.422;2022-10-31T10:48:51;16.90;30.80
5459;DHT22;2752;49.992;8.422;2022-10-31T10:51:23;16.90;27.60
5459;DHT22;2752;49.992;8.422;2022-10-31T10:54:03;17.10;27.70
5459;DHT22;2752;49.992;8.422;2022-10-31T10:56:50;17.00;27.50
5459;DHT22;2752;49.992;8.422;2022-10-31T10:59:20;16.90;27.60
5459;DHT22;2752;49.992;8.422;2022-10-31T11:01:49;17.10;28.00
5459;DHT22;2752;49.992;8.422;2022-10-31T11:04:26;17.20;25.50
5459;DHT22;2752;49.992;8.422;2022-10-31T11:07:02;17.30;24.30
5459;DHT22;2752;49.992;8.422;2022-10-31T11:09:29;17.40;24.70
5459;DHT22;2752;49.992;8.422;2022-10-31T11:11:56;17.40;21.30
5459;DHT22;2752;49.992;8.422;2022-10-31T11:14:24;17.50;19.30
5459;DHT22;2752;49.992;8.422;2022-10-31T11:16:54;17.60;16.00
5459;DHT22;2752;49.992;8.422;2022-10-31T11:19:25;17.60;12.20
5459;DHT22;2752;49.992;8.422;2022-10-31T11:21:53;17.60;10.40
5459;DHT22;2752;49.992;8.422;2022-10-31T11:24:22;17.80;7.60
5459;DHT22;2752;49.992;8.422;2022-10-31T11:26:51;17.90;3.20
5459;DHT22;2752;49.992;8.422;2022-10-31T11:29:22;17.80;1.00
5459;DHT22;2752;49.992;8.422;2022-10-31T11:31:53;17.70;1.00
5459;DHT22;2752;49.992;8.422;2022-10-31T11:34:27;17.70;1.00
5459;DHT22;2752;49.992;8.422;2022-10-31T11:37:04;17.80;1.00
5459;DHT22;2752;49.992;8.422;2022-10-31T11:39:40;18.00;1.00
5459;DHT22;2752;49.992;8.422;2022-10-31T11:42:07;18.00;1.00
5459;DHT22;2752;49.992;8.422;2022-10-31T11:44:34;18.20;1.00
5459;DHT22;2752;49.992;8.422;2022-10-31T11:47:03;18.30;1.00
5459;DHT22;2752;49.992;8.422;2022-10-31T11:49:34;18.30;1.00
5459;DHT22;2752;49.992;8.422;2022-10-31T11:52:04;18.40;1.00
5459;DHT22;2752;49.992;8.422;2022-10-31T11:54:36;18.40;1.00
5459;DHT22;2752;49.992;8.422;2022-10-31T11:57:04;18.50;1.00
5459;DHT22;2752;49.992;8.422;2022-10-31T11:59:32;18.60;1.00
5459;DHT22;2752;49.992;8.422;2022-10-31T12:02:00;18.70;1.00
5459;DHT22;2752;49.992;8.422;2022-10-31T12:04:40;18.80;1.00
5459;DHT22;2752;49.992;8.422;2022-10-31T12:07:08;18.90;1.00
5459;DHT22;2752;49.992;8.422;2022-10-31T12:09:36;18.80;1.00
5459;DHT22;2752;49.992;8.422;2022-10-31T12:12:16;18.90;1.00
5459;DHT22;2752;49.992;8.422;2022-10-31T12:14:54;19.10;1.00
5459;DHT22;2752;49.992;8.422;2022-10-31T12:17:28;19.20;1.00
5459;DHT22;2752;49.992;8.422;2022-10-31T12:20:06;19.10;1.00
5459;DHT22;2752;49.992;8.422;2022-10-31T12:22:44;19.20;1.00
5459;DHT22;2752;49.992;8.422;2022-10-31T12:25:25;19.40;1.00
5459;DHT22;2752;49.992;8.422;2022-10-31T12:28:03;19.40;1.00
5459;DHT22;2752;49.992;8.422;2022-10-31T12:30:39;19.40;1.00
5459;DHT22;2752;49.992;8.422;2022-10-31T12:33:20;19.40;1.00
5459;DHT22;2752;49.992;8.422;2022-10-31T12:35:55;19.40;1.00
5459;DHT22;2752;49.992;8.422;2022-10-31T12:38:50;19.50;1.00
5459;DHT22;2752;49.992;8.422;2022-10-31T12:41:30;19.40;1.00
5459;DHT22;2752;49.992;8.422;2022-10-31T12:44:05;19.50;1.00
5459;DHT22;2752;49.992;8.422;2022-10-31T12:46:51;19.50;1.00
5459;DHT22;2752;49.992;8.422;2022-10-31T12:49:32;19.70;1.00
5459;DHT22;2752;49.992;8.422;2022-10-31T12:52:14;19.80;1.00
5459;DHT22;2752;49.992;8.422;2022-10-31T12:54:53;19.90;1.00
5459;DHT22;2752;49.992;8.422;2022-10-31T12:57:28;19.90;1.00
5459;DHT22;2752;49.992;8.422;2022-10-31T12:59:59;19.90;1.00
5459;DHT22;2752;49.992;8.422;2022-10-31T13:02:29;19.90;1.00
5459;DHT22;2752;49.992;8.422;2022-10-31T13:05:00;19.80;1.00
5459;DHT22;2752;49.992;8.422;2022-10-31T13:07:33;19.60;1.00
5459;DHT22;2752;49.992;8.422;2022-10-31T13:10:05;19.50;1.00
5459;DHT22;2752;49.992;8.422;2022-10-31T13:12:34;19.40;1.00
5459;DHT22;2752;49.992;8.422;2022-10-31T13:15:05;19.50;1.00
5459;DHT22;2752;49.992;8.422;2022-10-31T13:17:35;19.50;1.00
5459;DHT22;2752;49.992;8.422;2022-10-31T13:20:16;19.50;1.00
5459;DHT22;2752;49.992;8.422;2022-10-31T13:22:47;19.40;1.00
5459;DHT22;2752;49.992;8.422;2022-10-31T13:25:17;19.30;1.00
5459;DHT22;2752;49.992;8.422;2022-10-31T13:27:48;19.30;1.00
5459;DHT22;2752;49.992;8.422;2022-10-31T13:30:17;19.30;1.00
5459;DHT22;2752;49.992;8.422;2022-10-31T13:32:49;19.30;1.00
5459;DHT22;2752;49.992;8.422;2022-10-31T13:35:22;19.30;1.00
5459;DHT22;2752;49.992;8.422;2022-10-31T13:37:57;19.30;1.00
5459;DHT22;2752;49.992;8.422;2022-10-31T13:40:34;19.30;1.00
5459;DHT22;2752;49.992;8.422;2022-10-31T13:43:07;19.10;1.00
5459;DHT22;2752;49.992;8.422;2022-10-31T13:45:48;19.10;1.00
5459;DHT22;2752;49.992;8.422;2022-10-31T13:48:31;19.10;1.00
5459;DHT22;2752;49.992;8.422;2022-10-31T13:51:00;19.00;1.00
5459;DHT22;2752;49.992;8.422;2022-10-31T13:53:37;19.00;1.00
5459;DHT22;2752;49.992;8.422;2022-10-31T13:56:15;19.00;1.00
5459;DHT22;2752;49.992;8.422;2022-10-31T13:58:58;18.90;1.00
5459;DHT22;2752;49.992;8.422;2022-10-31T14:01:26;18.90;1.00
5459;DHT22;2752;49.992;8.422;2022-10-31T14:04:01;19.00;1.00
5459;DHT22;2752;49.992;8.422;2022-10-31T14:06:37;18.90;1.00
5459;DHT22;2752;49.992;8.422;2022-10-31T14:09:20;18.90;1.00
5459;DHT22;2752;49.992;8.422;2022-10-31T14:11:48;18.90;1.00
5459;DHT22;2752;49.992;8.422;2022-10-31T14:14:16;18.80;1.00
5459;DHT22;2752;49.992;8.422;2022-10-31T14:16:45;18.70;1.00
5459;DHT22;2752;49.992;8.422;2022-10-31T14:19:17;18.70;1.00
5459;DHT22;2752;49.992;8.422;2022-10-31T14:21:46;19.00;1.00
5459;DHT22;2752;49.992;8.422;2022-10-31T14:24:28;19.10;1.00
5459;DHT22;2752;49.992;8.422;2022-10-31T14:26:57;19.20;1.00
5459;DHT22;2752;49.992;8.422;2022-10-31T14:29:26;19.30;1.00
5459;DHT22;2752;49.992;8.422;2022-10-31T14:32:00;19.30;1.00
5459;DHT22;2752;49.992;8.422;2022-10-31T14:34:32;19.40;1.00
5459;DHT22;2752;49.992;8.422;2022-10-31T14:40:18;19.60;1.00
5459;DHT22;2752;49.992;8.422;2022-10-31T14:43:04;19.80;1.00
5459;DHT22;2752;49.992;8.422;2022-10-31T14:45:41;19.80;1.00
5459;DHT22;2752;49.992;8.422;2022-10-31T14:48:24;19.80;1.00
5459;DHT22;2752;49.992;8.422;2022-10-31T14:50:54;19.80;1.00
5459;DHT22;2752;49.992;8.422;2022-10-31T14:53:26;19.90;1.00
5459;DHT22;2752;49.992;8.422;2022-10-31T14:55:56;19.80;1.00
5459;DHT22;2752;49.992;8.422;2022-10-31T14:58:26;19.70;1.00
5459;DHT22;2752;49.992;8.422;2022-10-31T15:00:57;19.60;1.00
5459;DHT22;2752;49.992;8.422;2022-10-31T15:03:28;19.50;1.00
5459;DHT22;2752;49.992;8.422;2022-10-31T15:05:59;19.30;1.00
5459;DHT22;2752;49.992;8.422;2022-10-31T15:08:32;19.10;1.00
5459;DHT22;2752;49.992;8.422;2022-10-31T15:11:09;19.00;1.00
5459;DHT22;2752;49.992;8.422;2022-10-31T15:13:45;18.90;1.00
5459;DHT22;2752;49.992;8.422;2022-10-31T15:16:14;18.70;1.00
5459;DHT22;2752;49.992;8.422;2022-10-31T15:18:48;18.50;1.00
5459;DHT22;2752;49.992;8.422;2022-10-31T15:21:20;18.40;1.00
5459;DHT22;2752;49.992;8.422;2022-10-31T15:23:50;18.60;1.00
5459;DHT22;2752;49.992;8.422;2022-10-31T15:26:20;18.60;1.00
5459;DHT22;2752;49.992;8.422;2022-10-31T15:28:58;18.40;1.00
5459;DHT22;2752;49.992;8.422;2022-10-31T15:31:25;18.30;1.00
5459;DHT22;2752;49.992;8.422;2022-10-31T15:33:53;18.20;1.00
5459;DHT22;2752;49.992;8.422;2022-10-31T15:36:24;18.10;1.00
5459;DHT22;2752;49.992;8.422;2022-10-31T15:38:52;18.00;1.00
5459;DHT22;2752;49.992;8.422;2022-10-31T15:41:26;18.00;1.00
5459;DHT22;2752;49.992;8.422;2022-10-31T15:43:54;17.90;1.00
5459;DHT22;2752;49.992;8.422;2022-10-31T15:46:21;17.90;1.00
5459;DHT22;2752;49.992;8.422;2022-10-31T15:48:48;17.80;1.00
5459;DHT22;2752;49.992;8.422;2022-10-31T15:51:15;17.90;1.00
5459;DHT22;2752;49.992;8.422;2022-10-31T15:53:44;17.90;1.00
5459;DHT22;2752;49.992;8.422;2022-10-31T15:56:19;17.80;1.00
5459;DHT22;2752;49.992;8.422;2022-10-31T15:58:50;17.80;1.00
5459;DHT22;2752;49.992;8.422;2022-10-31T16:01:22;17.70;1.00
5459;DHT22;2752;49.992;8.422;2022-10-31T16:04:04;17.60;1.00
5459;DHT22;2752;49.992;8.422;2022-10-31T16:06:33;17.50;1.00
5459;DHT22;2752;49.992;8.422;2022-10-31T16:09:00;17.50;1.00
5459;DHT22;2752;49.992;8.422;2022-10-31T16:11:34;17.40;1.00
5459;DHT22;2752;49.992;8.422;2022-10-31T16:14:05;17.30;1.00
5459;DHT22;2752;49.992;8.422;2022-10-31T16:16:39;17.40;1.00
5459;DHT22;2752;49.992;8.422;2022-10-31T16:19:15;17.20;1.00
5459;DHT22;2752;49.992;8.422;2022-10-31T16:21:43;17.20;1.00
5459;DHT22;2752;49.992;8.422;2022-10-31T16:24:16;17.20;1.00
5459;DHT22;2752;49.992;8.422;2022-10-31T16:26:48;17.10;1.00
5459;DHT22;2752;49.992;8.422;2022-10-31T16:29:25;17.10;1.00
5459;DHT22;2752;49.992;8.422;2022-10-31T16:31:52;17.10;2.20
5459;DHT22;2752;49.992;8.422;2022-10-31T16:34:21;17.00;2.30
5459;DHT22;2752;49.992;8.422;2022-10-31T16:36:48;17.00;2.70